createdAt,value
2023-02-23T00:00:28.946Z,64.88
2023-02-23T00:03:30.431Z,64.52
2023-02-23T00:06:34.090Z,64.86
2023-02-23T00:09:35.940Z,64.87
2023-02-23T00:12:38.305Z,64.94
2023-02-23T00:15:40.382Z,64.95
2023-02-23T00:18:53.987Z,64.92
2023-02-23T00:21:58.739Z,64.87
2023-02-23T00:25:01.319Z,64.90
2023-02-23T00:28:03.159Z,64.87
2023-02-23T00:31:04.851Z,64.72
2023-02-23T00:34:07.371Z,65.01
2023-02-23T00:37:08.911Z,65.04
2023-02-23T00:40:16.388Z,64.87
2023-02-23T00:43:19.820Z,64.81
2023-02-23T00:46:26.952Z,64.84
2023-02-23T00:49:28.663Z,64.92
2023-02-23T00:52:30.404Z,64.93
2023-02-23T00:55:31.998Z,65.09
2023-02-23T00:58:33.591Z,64.84
2023-02-23T01:01:38.828Z,64.84
2023-02-23T01:04:40.390Z,64.62
2023-02-23T01:07:42.015Z,64.87
2023-02-23T01:10:44.846Z,64.93
2023-02-23T01:13:47.788Z,64.84
2023-02-23T01:16:49.407Z,64.90
2023-02-23T01:19:50.929Z,64.97
2023-02-23T01:22:52.515Z,64.95
2023-02-23T01:25:53.985Z,65.04
2023-02-23T01:28:58.379Z,64.88
2023-02-23T01:32:00.859Z,64.90
2023-02-23T01:35:12.587Z,64.98
2023-02-23T01:38:14.086Z,65.03
2023-02-23T01:41:16.855Z,65.00
2023-02-23T01:44:18.540Z,64.98
2023-02-23T01:47:20.357Z,65.20
2023-02-23T01:50:23.791Z,65.02
2023-02-23T01:53:27.882Z,64.88
2023-02-23T01:56:36.450Z,65.04
2023-02-23T01:59:42.651Z,65.13
2023-02-23T02:02:44.129Z,64.98
2023-02-23T02:05:48.341Z,64.91
2023-02-23T02:08:55.059Z,64.97
2023-02-23T02:11:56.575Z,65.04
2023-02-23T02:14:59.990Z,65.23
2023-02-23T02:18:33.399Z,65.04
2023-02-23T02:21:53.822Z,65.10
2023-02-23T02:24:55.482Z,65.07
2023-02-23T02:27:58.167Z,65.18
2023-02-23T02:31:26.765Z,65.22
2023-02-23T02:34:49.992Z,65.24
2023-02-23T02:38:04.446Z,65.32
2023-02-23T02:41:18.775Z,65.18
2023-02-23T02:44:29.289Z,65.08
2023-02-23T02:47:44.636Z,65.29
2023-02-23T02:50:58.068Z,65.39
2023-02-23T02:54:10.539Z,65.26
2023-02-23T02:57:13.733Z,65.30
2023-02-23T03:00:41.855Z,65.23
2023-02-23T03:04:04.749Z,65.30
2023-02-23T03:07:48.253Z,65.38
2023-02-23T03:11:29.063Z,65.28
2023-02-23T03:15:05.259Z,65.46
2023-02-23T03:18:47.717Z,65.43
2023-02-23T03:22:07.552Z,65.49
2023-02-23T03:25:33.727Z,65.40
2023-02-23T03:29:14.181Z,65.53
2023-02-23T03:33:02.933Z,65.52
2023-02-23T03:36:30.189Z,65.61
2023-02-23T03:39:56.398Z,65.44
2023-02-23T03:43:20.130Z,65.54
2023-02-23T03:46:43.840Z,65.64
2023-02-23T03:50:06.515Z,65.49
2023-02-23T03:53:30.392Z,65.52
2023-02-23T03:56:54.706Z,65.58
2023-02-23T04:00:21.206Z,65.48
2023-02-23T04:03:44.312Z,65.44
2023-02-23T04:07:05.978Z,65.47
2023-02-23T04:10:28.576Z,65.54
2023-02-23T04:13:33.404Z,65.43
2023-02-23T04:16:35.102Z,65.46
2023-02-23T04:19:36.669Z,65.49
2023-02-23T04:22:38.735Z,65.46
2023-02-23T04:25:40.332Z,65.47
2023-02-23T04:28:42.878Z,65.45
2023-02-23T04:31:44.525Z,65.40
2023-02-23T04:34:46.136Z,65.60
2023-02-23T04:37:47.672Z,65.62
2023-02-23T04:40:49.810Z,65.68
2023-02-23T04:43:51.324Z,65.73
2023-02-23T04:46:52.806Z,65.72
2023-02-23T04:49:54.308Z,65.52
2023-02-23T04:52:56.673Z,65.70
2023-02-23T04:55:58.358Z,65.66
2023-02-23T04:59:00.252Z,65.90
2023-02-23T05:02:02.349Z,65.39
2023-02-23T05:05:04.156Z,65.37
2023-02-23T05:08:06.167Z,65.46
2023-02-23T05:11:08.116Z,65.22
2023-02-23T05:14:10.242Z,65.13
2023-02-23T05:17:11.922Z,65.24
2023-02-23T05:20:14.399Z,65.01
2023-02-23T05:23:15.865Z,65.11
2023-02-23T05:26:17.418Z,64.90
2023-02-23T05:29:19.187Z,64.85
2023-02-23T05:32:20.667Z,64.80
2023-02-23T05:35:22.643Z,64.89
2023-02-23T05:38:25.062Z,64.97
2023-02-23T05:41:26.555Z,64.89
2023-02-23T05:44:28.231Z,64.97
2023-02-23T05:47:31.054Z,64.94
2023-02-23T05:50:34.306Z,65.04
2023-02-23T05:53:36.791Z,65.02
2023-02-23T05:56:38.346Z,65.14
2023-02-23T05:59:40.206Z,65.01
2023-02-23T06:02:42.005Z,65.08
2023-02-23T06:05:49.688Z,65.14
2023-02-23T06:08:52.737Z,65.18
2023-02-23T06:11:54.281Z,65.14
2023-02-23T06:14:56.775Z,65.26
2023-02-23T06:17:58.328Z,65.54
2023-02-23T06:21:01.345Z,65.51
2023-02-23T06:24:02.844Z,65.61
2023-02-23T06:27:05.277Z,65.69
2023-02-23T06:30:07.160Z,65.75
2023-02-23T06:33:08.656Z,65.82
2023-02-23T06:36:10.361Z,65.53
2023-02-23T06:39:12.267Z,65.55
2023-02-23T06:42:14.736Z,65.54
2023-02-23T06:45:16.752Z,65.59
2023-02-23T06:48:18.219Z,65.49
2023-02-23T06:51:19.970Z,65.52
2023-02-23T06:54:21.674Z,65.50
2023-02-23T06:57:23.135Z,65.48
2023-02-23T07:00:24.627Z,65.07
2023-02-23T07:03:26.360Z,65.19
2023-02-23T07:06:27.834Z,65.29
2023-02-23T07:09:30.739Z,65.24
2023-02-23T07:12:32.476Z,65.14
2023-02-23T07:15:36.434Z,65.14
2023-02-23T07:18:37.917Z,64.76
2023-02-23T07:21:39.401Z,64.82
2023-02-23T07:24:40.915Z,64.85
2023-02-23T07:27:42.534Z,64.98
2023-02-23T07:30:44.105Z,65.22
2023-02-23T07:33:45.615Z,65.30
2023-02-23T07:36:47.158Z,65.49
2023-02-23T07:39:48.676Z,65.76
2023-02-23T07:42:50.180Z,65.73
2023-02-23T07:45:51.847Z,65.76
2023-02-23T07:48:53.731Z,65.99
2023-02-23T07:51:55.191Z,65.99
2023-02-23T07:54:57.640Z,65.91
2023-02-23T07:57:59.166Z,65.94
2023-02-23T08:01:00.823Z,66.01
2023-02-23T08:04:02.368Z,66.18
2023-02-23T08:07:03.954Z,66.10
2023-02-23T08:10:05.948Z,66.06
2023-02-23T08:13:07.816Z,66.06
2023-02-23T08:16:09.544Z,66.11
2023-02-23T08:19:11.125Z,65.83
2023-02-23T08:22:12.655Z,66.17
2023-02-23T08:25:14.242Z,66.35
2023-02-23T08:28:15.876Z,66.38
2023-02-23T08:31:21.221Z,66.29
2023-02-23T08:34:23.497Z,66.56
2023-02-23T08:37:25.025Z,66.48
2023-02-23T08:40:26.667Z,66.46
2023-02-23T08:43:29.138Z,66.41
2023-02-23T08:46:31.016Z,66.50
2023-02-23T08:49:33.296Z,66.45
2023-02-23T08:52:34.795Z,66.52
2023-02-23T08:55:38.142Z,66.39
2023-02-23T08:58:39.699Z,66.26
2023-02-23T09:01:42.381Z,66.17
2023-02-23T09:04:43.983Z,66.26
2023-02-23T09:07:46.790Z,66.16
2023-02-23T09:10:48.286Z,65.51
2023-02-23T09:13:49.990Z,63.85
2023-02-23T09:16:51.450Z,62.16
2023-02-23T09:19:53.216Z,61.63
2023-02-23T09:22:55.089Z,61.01
2023-02-23T09:25:56.610Z,60.94
2023-02-23T09:29:00.490Z,60.70
2023-02-23T09:32:02.022Z,60.59
2023-02-23T09:35:03.700Z,60.82
2023-02-23T09:38:07.075Z,61.62
2023-02-23T09:41:25.553Z,62.53
2023-02-23T09:44:32.904Z,62.58
2023-02-23T09:47:59.822Z,62.57
2023-02-23T09:51:05.867Z,62.59
2023-02-23T09:54:12.774Z,62.58
2023-02-23T09:57:29.825Z,62.79
2023-02-23T10:00:39.491Z,62.59
2023-02-23T10:03:48.550Z,62.72
2023-02-23T10:07:03.553Z,62.79
2023-02-23T10:10:27.656Z,62.74
2023-02-23T10:13:51.450Z,62.81
2023-02-23T10:17:17.012Z,62.81
2023-02-23T10:20:28.078Z,62.72
2023-02-23T10:23:45.361Z,62.72
2023-02-23T10:26:54.156Z,62.67
2023-02-23T10:30:00.560Z,62.86
2023-02-23T10:33:16.930Z,62.78
2023-02-23T10:36:27.971Z,62.88
2023-02-23T10:39:31.403Z,62.81
2023-02-23T10:42:33.064Z,62.91
2023-02-23T10:45:41.346Z,62.76
2023-02-23T10:48:43.449Z,62.94
2023-02-23T10:51:45.470Z,62.98
2023-02-23T10:54:51.620Z,62.82
2023-02-23T10:58:08.463Z,62.85
2023-02-23T11:01:10.175Z,63.07
2023-02-23T11:04:20.804Z,63.43
2023-02-23T11:07:33.073Z,63.78
2023-02-23T11:10:34.637Z,64.06
2023-02-23T11:13:37.642Z,64.25
2023-02-23T11:16:39.678Z,64.18
2023-02-23T11:19:41.386Z,64.14
2023-02-23T11:22:43.180Z,64.20
2023-02-23T11:25:46.427Z,64.14
2023-02-23T11:28:53.433Z,64.30
2023-02-23T11:31:58.498Z,64.32
2023-02-23T11:35:18.914Z,64.34
2023-02-23T11:38:29.161Z,64.35
2023-02-23T11:41:32.828Z,64.40
2023-02-23T11:44:34.352Z,64.50
2023-02-23T11:47:40.298Z,64.67
2023-02-23T11:50:48.369Z,64.64
2023-02-23T11:53:49.952Z,64.71
2023-02-23T11:56:53.970Z,64.65
2023-02-23T11:59:58.478Z,64.90
2023-02-23T12:03:01.396Z,64.74
2023-02-23T12:06:03.094Z,64.81
2023-02-23T12:09:23.945Z,64.61
2023-02-23T12:12:30.969Z,64.76
2023-02-23T12:15:54.261Z,64.61
2023-02-23T12:19:22.880Z,64.63
2023-02-23T12:22:32.933Z,64.69
2023-02-23T12:25:49.496Z,64.76
2023-02-23T12:29:04.102Z,65.01
2023-02-23T12:32:17.819Z,65.14
2023-02-23T12:35:33.290Z,65.48
2023-02-23T12:38:48.636Z,65.26
2023-02-23T12:42:02.474Z,65.48
2023-02-23T12:45:06.821Z,65.40
2023-02-23T12:48:18.646Z,65.38
2023-02-23T12:51:29.838Z,65.08
2023-02-23T12:54:32.723Z,65.38
2023-02-23T12:57:51.304Z,65.29
2023-02-23T13:01:03.924Z,65.24
2023-02-23T13:04:34.064Z,65.06
2023-02-23T13:08:04.754Z,64.75
2023-02-23T13:11:27.594Z,64.87
2023-02-23T13:14:53.016Z,64.72
2023-02-23T13:18:23.575Z,64.70
2023-02-23T13:21:37.389Z,64.62
2023-02-23T13:24:44.864Z,64.64
2023-02-23T13:27:52.704Z,64.48
2023-02-23T13:30:54.923Z,64.47
2023-02-23T13:33:58.417Z,64.67
2023-02-23T13:37:03.478Z,64.94
2023-02-23T13:40:29.073Z,65.07
2023-02-23T13:43:39.316Z,65.29
2023-02-23T13:47:17.483Z,65.45
2023-02-23T13:50:30.866Z,65.50
2023-02-23T13:53:40.935Z,65.46
2023-02-23T13:56:46.851Z,65.49
2023-02-23T13:59:49.553Z,65.68
2023-02-23T14:02:51.351Z,65.77
2023-02-23T14:05:59.215Z,65.92
2023-02-23T14:09:09.548Z,65.89
2023-02-23T14:12:11.156Z,66.08
2023-02-23T14:15:28.222Z,65.99
2023-02-23T14:18:33.104Z,66.29
2023-02-23T14:21:49.826Z,66.22
2023-02-23T14:25:29.040Z,66.31
2023-02-23T14:28:34.271Z,66.39
2023-02-23T14:31:36.058Z,66.40
2023-02-23T14:34:59.930Z,66.48
2023-02-23T14:38:07.253Z,66.45
2023-02-23T14:41:11.941Z,66.58
2023-02-23T14:44:31.762Z,66.68
2023-02-23T14:47:44.591Z,66.77
2023-02-23T14:50:46.233Z,66.91
2023-02-23T14:53:47.799Z,67.01
2023-02-23T14:56:52.276Z,67.23
2023-02-23T14:59:58.386Z,67.19
2023-02-23T15:03:06.154Z,66.85
2023-02-23T15:06:09.728Z,67.33
2023-02-23T15:09:19.739Z,67.33
2023-02-23T15:12:27.051Z,67.45
2023-02-23T15:15:30.557Z,67.46
2023-02-23T15:18:37.391Z,67.45
2023-02-23T15:21:40.346Z,67.53
2023-02-23T15:24:47.107Z,67.60
2023-02-23T15:27:48.982Z,67.50
2023-02-23T15:30:51.727Z,67.34
2023-02-23T15:33:55.679Z,67.45
2023-02-23T15:37:03.368Z,67.41
2023-02-23T15:40:10.704Z,67.42
2023-02-23T15:43:12.337Z,67.49
2023-02-23T15:46:23.936Z,67.64
2023-02-23T15:49:34.054Z,67.47
2023-02-23T15:52:44.062Z,67.56
2023-02-23T15:55:47.945Z,67.46
2023-02-23T15:58:56.989Z,67.48
2023-02-23T16:02:02.757Z,67.52
2023-02-23T16:05:22.985Z,67.28
2023-02-23T16:08:25.790Z,67.44
2023-02-23T16:11:36.019Z,67.29
2023-02-23T16:14:49.833Z,67.35
2023-02-23T16:18:03.853Z,67.27
2023-02-23T16:21:06.721Z,67.50
2023-02-23T16:24:13.806Z,67.32
2023-02-23T16:27:15.959Z,67.35
2023-02-23T16:30:18.526Z,67.37
2023-02-23T16:33:25.891Z,67.09
2023-02-23T16:36:38.509Z,67.16
2023-02-23T16:39:40.032Z,66.87
2023-02-23T16:42:41.549Z,67.23
2023-02-23T16:45:43.399Z,67.21
2023-02-23T16:48:44.977Z,67.19
2023-02-23T16:51:46.521Z,67.31
2023-02-23T16:54:53.737Z,67.23
2023-02-23T16:58:00.990Z,67.24
2023-02-23T17:01:02.812Z,67.32
2023-02-23T17:04:04.377Z,67.23
2023-02-23T17:07:05.880Z,67.21
2023-02-23T17:10:08.678Z,67.34
2023-02-23T17:13:20.061Z,67.17
2023-02-23T17:16:21.770Z,67.35
2023-02-23T17:19:24.662Z,66.93
2023-02-23T17:22:28.957Z,67.05
2023-02-23T17:25:30.839Z,66.93
2023-02-23T17:28:32.432Z,66.88
2023-02-23T17:31:34.235Z,66.93
2023-02-23T17:34:36.016Z,66.98
2023-02-23T17:37:37.927Z,66.66
2023-02-23T17:40:39.471Z,66.83
2023-02-23T17:43:41.378Z,66.68
2023-02-23T17:46:42.919Z,66.51
2023-02-23T17:49:44.369Z,66.49
2023-02-23T17:52:46.887Z,66.53
2023-02-23T17:55:48.348Z,66.49
2023-02-23T17:58:50.416Z,66.37
2023-02-23T18:01:52.024Z,66.33
2023-02-23T18:04:53.584Z,66.13
2023-02-23T18:07:55.085Z,65.96
2023-02-23T18:10:57.600Z,66.00
2023-02-23T18:13:59.094Z,66.01
2023-02-23T18:17:00.940Z,65.89
2023-02-23T18:20:03.544Z,65.82
2023-02-23T18:23:04.997Z,65.80
2023-02-23T18:26:12.262Z,65.58
2023-02-23T18:29:13.771Z,65.55
2023-02-23T18:32:15.337Z,65.68
2023-02-23T18:35:17.019Z,65.68
2023-02-23T18:38:18.678Z,65.72
2023-02-23T18:41:20.344Z,65.78
2023-02-23T18:44:22.957Z,65.69
2023-02-23T18:47:24.589Z,65.73
2023-02-23T18:50:26.584Z,65.58
2023-02-23T18:53:28.089Z,65.54
2023-02-23T18:56:29.660Z,65.60
2023-02-23T18:59:32.268Z,65.63
2023-02-23T19:02:33.740Z,65.47
2023-02-23T19:05:37.464Z,65.12
2023-02-23T19:08:38.925Z,65.25
2023-02-23T19:11:42.524Z,65.32
2023-02-23T19:14:49.761Z,65.17
2023-02-23T19:17:51.523Z,65.02
2023-02-23T19:20:53.009Z,65.11
2023-02-23T19:23:57.650Z,64.82
2023-02-23T19:26:59.133Z,64.86
2023-02-23T19:30:00.661Z,64.85
2023-02-23T19:33:03.930Z,64.84
2023-02-23T19:36:07.384Z,64.84
2023-02-23T19:39:15.615Z,65.24
2023-02-23T19:42:19.276Z,64.65
2023-02-23T19:45:21.765Z,64.63
2023-02-23T19:48:25.264Z,64.25
2023-02-23T19:51:26.943Z,64.55
2023-02-23T19:54:33.811Z,64.52
2023-02-23T19:57:35.308Z,64.51
2023-02-23T20:00:36.864Z,64.21
2023-02-23T20:03:39.526Z,64.44
2023-02-23T20:06:47.129Z,64.45
2023-02-23T20:09:48.777Z,64.02
2023-02-23T20:12:50.232Z,64.62
2023-02-23T20:16:08.943Z,64.17
2023-02-23T20:19:11.491Z,64.30
2023-02-23T20:22:13.045Z,63.92
2023-02-23T20:25:15.617Z,64.34
2023-02-23T20:28:17.678Z,64.16
2023-02-23T20:31:26.417Z,64.24
2023-02-23T20:34:28.244Z,64.34
2023-02-23T20:37:29.953Z,64.28
2023-02-23T20:40:31.435Z,64.41
2023-02-23T20:43:32.961Z,64.34
2023-02-23T20:46:34.582Z,64.14
2023-02-23T20:49:36.745Z,64.26
2023-02-23T20:52:39.618Z,64.16
2023-02-23T20:55:41.150Z,64.10
2023-02-23T20:58:43.558Z,63.91
2023-02-23T21:01:45.204Z,64.06
2023-02-23T21:04:46.800Z,63.98
2023-02-23T21:07:49.742Z,64.10
2023-02-23T21:10:51.246Z,64.27
2023-02-23T21:13:53.048Z,64.15
2023-02-23T21:16:54.730Z,64.14
2023-02-23T21:19:56.543Z,64.20
2023-02-23T21:22:58.089Z,64.52
2023-02-23T21:26:06.991Z,64.63
2023-02-23T21:29:14.659Z,64.73
2023-02-23T21:32:16.762Z,64.87
2023-02-23T21:35:19.470Z,64.63
2023-02-23T21:38:20.981Z,64.74
2023-02-23T21:41:22.871Z,65.06
2023-02-23T21:44:24.731Z,65.15
2023-02-23T21:47:26.279Z,65.11
2023-02-23T21:50:27.823Z,65.20
2023-02-23T21:53:29.997Z,65.19
2023-02-23T21:56:32.698Z,65.08
2023-02-23T21:59:34.757Z,65.14
2023-02-23T22:02:38.268Z,65.06
2023-02-23T22:05:40.220Z,65.09
2023-02-23T22:08:47.226Z,64.97
2023-02-23T22:11:48.805Z,65.01
2023-02-23T22:14:50.399Z,65.08
2023-02-23T22:17:51.867Z,65.18
2023-02-23T22:21:00.705Z,64.89
2023-02-23T22:24:05.284Z,65.12
2023-02-23T22:27:07.687Z,65.08
2023-02-23T22:30:12.113Z,65.19
2023-02-23T22:33:13.808Z,65.17
2023-02-23T22:36:18.465Z,65.25
2023-02-23T22:39:20.155Z,65.52
2023-02-23T22:42:24.311Z,65.29
2023-02-23T22:45:26.006Z,65.40
2023-02-23T22:48:28.730Z,65.40
2023-02-23T22:51:30.707Z,65.27
2023-02-23T22:54:35.227Z,65.38
2023-02-23T22:57:36.913Z,65.30
2023-02-23T23:00:38.380Z,65.39
2023-02-23T23:03:45.580Z,65.36
2023-02-23T23:06:47.634Z,65.47
2023-02-23T23:09:49.402Z,65.46
2023-02-23T23:12:51.447Z,65.35
2023-02-23T23:15:55.227Z,65.39
2023-02-23T23:19:04.916Z,65.32
2023-02-23T23:22:13.151Z,65.34
2023-02-23T23:25:14.865Z,65.67
2023-02-23T23:28:16.541Z,65.35
2023-02-23T23:31:22.633Z,65.60
2023-02-23T23:34:25.200Z,65.49
2023-02-23T23:37:29.230Z,65.22
2023-02-23T23:40:35.590Z,65.42
2023-02-23T23:43:37.598Z,65.45
2023-02-23T23:46:42.737Z,65.57
2023-02-23T23:49:44.367Z,65.50
2023-02-23T23:52:45.904Z,65.58
2023-02-23T23:55:47.353Z,65.87
2023-02-23T23:58:50.242Z,65.64
